createdAt,value
2023-01-22T00:02:19.217Z,85.70
2023-01-22T00:05:22.246Z,85.88
2023-01-22T00:08:26.905Z,86.00
2023-01-22T00:11:30.173Z,86.01
2023-01-22T00:14:33.273Z,86.11
2023-01-22T00:17:37.290Z,86.07
2023-01-22T00:20:41.658Z,86.02
2023-01-22T00:23:44.674Z,85.85
2023-01-22T00:26:47.401Z,85.95
2023-01-22T00:29:51.693Z,86.17
2023-01-22T00:32:54.474Z,86.61
2023-01-22T00:35:59.840Z,86.57
2023-01-22T00:39:02.725Z,86.65
2023-01-22T00:42:05.695Z,86.58
2023-01-22T00:45:09.056Z,86.51
2023-01-22T00:48:11.798Z,86.55
2023-01-22T00:51:15.646Z,86.50
2023-01-22T00:54:18.537Z,86.54
2023-01-22T00:57:22.162Z,86.22
2023-01-22T01:00:25.949Z,86.08
2023-01-22T01:03:31.962Z,85.84
2023-01-22T01:06:34.831Z,86.11
2023-01-22T01:09:37.603Z,86.09
2023-01-22T01:12:40.472Z,86.60
2023-01-22T01:15:43.311Z,86.98
2023-01-22T01:18:47.065Z,87.03
2023-01-22T01:21:51.952Z,86.99
2023-01-22T01:24:56.170Z,86.63
2023-01-22T01:27:59.866Z,86.68
2023-01-22T01:31:05.798Z,86.45
2023-01-22T01:34:10.548Z,86.33
2023-01-22T01:37:13.269Z,86.44
2023-01-22T01:40:16.513Z,86.48
2023-01-22T01:43:19.726Z,86.60
2023-01-22T01:46:27.330Z,86.19
2023-01-22T01:49:42.882Z,85.95
2023-01-22T01:52:45.922Z,85.76
2023-01-22T01:55:49.049Z,86.14
2023-01-22T01:58:58.188Z,86.13
2023-01-22T02:02:03.424Z,86.18
2023-01-22T02:05:08.247Z,86.16
2023-01-22T02:08:11.704Z,86.40
2023-01-22T02:11:19.362Z,86.53
2023-01-22T02:14:26.876Z,86.37
2023-01-22T02:17:30.267Z,86.55
2023-01-22T02:20:37.545Z,86.54
2023-01-22T02:23:43.157Z,86.61
2023-01-22T02:26:48.268Z,86.83
2023-01-22T02:29:54.575Z,87.10
2023-01-22T02:32:57.543Z,87.22
2023-01-22T02:36:00.691Z,87.04
2023-01-22T02:39:04.031Z,86.63
2023-01-22T02:42:08.343Z,87.00
2023-01-22T02:45:12.081Z,87.20
2023-01-22T02:48:16.954Z,87.35
2023-01-22T02:51:21.210Z,87.05
2023-01-22T02:54:25.435Z,87.12
2023-01-22T02:57:31.166Z,87.23
2023-01-22T03:00:33.922Z,87.27
2023-01-22T03:03:36.707Z,87.33
2023-01-22T03:06:45.745Z,87.39
2023-01-22T03:09:48.739Z,87.54
2023-01-22T03:13:09.931Z,87.62
2023-01-22T03:16:31.911Z,87.71
2023-01-22T03:19:53.293Z,87.67
2023-01-22T03:22:57.226Z,87.61
2023-01-22T03:26:00.031Z,87.89
2023-01-22T03:29:02.789Z,87.94
2023-01-22T03:32:06.349Z,87.77
2023-01-22T03:35:10.715Z,87.75
2023-01-22T03:38:24.301Z,87.76
2023-01-22T03:41:28.418Z,87.31
2023-01-22T03:44:31.500Z,87.39
2023-01-22T03:47:34.206Z,87.35
2023-01-22T03:50:38.610Z,87.37
2023-01-22T03:53:43.661Z,87.41
2023-01-22T03:56:46.602Z,87.55
2023-01-22T04:00:07.701Z,87.94
2023-01-22T04:03:15.375Z,88.41
2023-01-22T04:06:21.706Z,88.46
2023-01-22T04:09:26.502Z,88.53
2023-01-22T04:12:29.328Z,88.65
2023-01-22T04:15:32.094Z,88.86
2023-01-22T04:18:37.364Z,88.97
2023-01-22T04:21:59.759Z,89.12
2023-01-22T04:25:02.533Z,89.31
2023-01-22T04:28:08.644Z,89.33
2023-01-22T04:31:12.025Z,89.29
2023-01-22T04:34:42.136Z,89.34
2023-01-22T04:37:56.460Z,89.46
2023-01-22T04:40:59.394Z,89.53
2023-01-22T04:44:02.373Z,89.70
2023-01-22T04:47:07.564Z,89.73
2023-01-22T04:50:20.875Z,89.88
2023-01-22T04:53:23.784Z,89.76
2023-01-22T04:56:26.686Z,89.47
2023-01-22T04:59:29.408Z,89.28
2023-01-22T05:02:33.347Z,89.47
2023-01-22T05:05:36.380Z,89.60
2023-01-22T05:08:39.388Z,89.79
2023-01-22T05:11:42.140Z,89.85
2023-01-22T05:14:48.209Z,89.99
2023-01-22T05:17:51.707Z,89.97
2023-01-22T05:20:56.719Z,90.15
2023-01-22T05:24:03.006Z,90.32
2023-01-22T05:27:06.185Z,90.24
2023-01-22T05:30:23.538Z,90.32
2023-01-22T05:33:49.085Z,90.39
2023-01-22T05:36:53.089Z,90.49
2023-01-22T05:39:57.865Z,90.36
2023-01-22T05:43:03.453Z,90.65
2023-01-22T05:46:07.102Z,90.58
2023-01-22T05:49:25.701Z,90.61
2023-01-22T05:52:31.657Z,90.70
2023-01-22T05:55:35.550Z,90.77
2023-01-22T05:58:47.918Z,90.77
2023-01-22T06:01:51.035Z,90.84
2023-01-22T06:04:54.398Z,90.73
2023-01-22T06:08:00.643Z,90.82
2023-01-22T06:11:15.695Z,90.69
2023-01-22T06:14:21.309Z,90.75
2023-01-22T06:17:25.164Z,90.85
2023-01-22T06:20:32.781Z,91.02
2023-01-22T06:23:38.911Z,91.02
2023-01-22T06:26:43.434Z,91.40
2023-01-22T06:29:47.745Z,91.29
2023-01-22T06:32:54.745Z,91.32
2023-01-22T06:35:57.787Z,91.20
2023-01-22T06:39:01.128Z,91.30
2023-01-22T06:42:16.757Z,91.15
2023-01-22T06:45:22.180Z,91.25
2023-01-22T06:48:28.241Z,91.18
2023-01-22T06:51:31.927Z,91.30
2023-01-22T06:54:34.963Z,91.21
2023-01-22T06:57:37.770Z,91.20
2023-01-22T07:00:40.562Z,91.36
2023-01-22T07:03:43.585Z,91.33
2023-01-22T07:06:46.431Z,91.25
2023-01-22T07:09:49.228Z,91.33
2023-01-22T07:12:55.752Z,91.26
2023-01-22T07:19:20.970Z,91.39
2023-01-22T07:22:24.022Z,91.34
2023-01-22T07:25:27.826Z,91.47
2023-01-22T07:28:30.756Z,91.38
2023-01-22T07:31:33.511Z,91.60
2023-01-22T07:34:37.880Z,91.45
2023-01-22T07:37:40.676Z,91.63
2023-01-22T07:40:43.435Z,91.62
2023-01-22T07:43:46.685Z,91.71
2023-01-22T07:46:49.529Z,91.77
2023-01-22T07:49:52.490Z,91.76
2023-01-22T07:52:56.090Z,91.76
2023-01-22T07:55:58.886Z,91.72
2023-01-22T07:59:01.685Z,91.83
2023-01-22T08:02:04.494Z,91.87
2023-01-22T08:05:08.580Z,91.57
2023-01-22T08:08:22.480Z,91.51
2023-01-22T08:11:26.636Z,91.37
2023-01-22T08:14:32.261Z,91.33
2023-01-22T08:17:35.112Z,91.40
2023-01-22T08:20:40.403Z,91.39
2023-01-22T08:23:48.849Z,91.46
2023-01-22T08:26:51.962Z,91.57
2023-01-22T08:29:55.337Z,91.37
2023-01-22T08:32:58.113Z,91.45
2023-01-22T08:36:00.947Z,91.43
2023-01-22T08:39:05.890Z,91.36
2023-01-22T08:42:09.756Z,91.46
2023-01-22T08:45:12.544Z,91.49
2023-01-22T08:48:15.877Z,91.41
2023-01-22T08:51:22.782Z,91.33
2023-01-22T08:54:26.378Z,91.41
2023-01-22T08:57:29.165Z,91.34
2023-01-22T09:00:32.022Z,91.21
2023-01-22T09:03:34.948Z,91.10
2023-01-22T09:06:41.122Z,91.17
2023-01-22T09:09:43.974Z,91.46
2023-01-22T09:12:46.756Z,91.26
2023-01-22T09:15:49.498Z,91.45
2023-01-22T09:18:53.019Z,91.50
2023-01-22T09:21:55.887Z,91.39
2023-01-22T09:24:59.326Z,91.41
2023-01-22T09:28:04.961Z,91.25
2023-01-22T09:31:07.824Z,91.20
2023-01-22T09:34:10.782Z,91.13
2023-01-22T09:37:14.902Z,91.07
2023-01-22T09:40:54.978Z,90.81
2023-01-22T09:44:03.867Z,90.93
2023-01-22T09:47:14.691Z,91.01
2023-01-22T09:54:03.194Z,90.74
2023-01-22T09:57:14.871Z,90.66
2023-01-22T10:00:40.065Z,90.68
2023-01-22T10:03:46.497Z,90.88
2023-01-22T10:06:51.251Z,90.68
2023-01-22T10:09:58.996Z,90.69
2023-01-22T10:13:23.656Z,90.63
2023-01-22T10:16:26.759Z,90.66
2023-01-22T10:19:42.794Z,90.63
2023-01-22T10:22:45.684Z,90.91
2023-01-22T10:25:48.688Z,90.61
2023-01-22T10:28:55.715Z,90.40
2023-01-22T10:32:01.234Z,90.67
2023-01-22T10:35:17.753Z,90.72
2023-01-22T10:38:32.682Z,90.94
2023-01-22T10:41:37.755Z,90.82
2023-01-22T10:44:40.488Z,90.89
2023-01-22T10:47:45.697Z,90.81
2023-01-22T10:51:12.480Z,90.77
2023-01-22T10:54:41.765Z,91.16
2023-01-22T10:57:52.244Z,91.11
2023-01-22T11:00:58.962Z,90.97
2023-01-22T11:04:20.487Z,90.91
2023-01-22T11:07:32.616Z,91.00
2023-01-22T11:10:51.903Z,91.08
2023-01-22T11:14:01.110Z,91.01
2023-01-22T11:17:13.795Z,91.23
2023-01-22T11:20:24.784Z,91.04
2023-01-22T11:23:37.106Z,91.41
2023-01-22T11:27:30.447Z,91.12
2023-01-22T11:30:55.980Z,91.10
2023-01-22T11:34:28.349Z,91.06
2023-01-22T11:38:03.713Z,91.15
2023-01-22T11:41:18.502Z,91.15
2023-01-22T11:44:44.829Z,91.35
2023-01-22T11:47:59.303Z,91.46
2023-01-22T11:51:20.180Z,91.37
2023-01-22T11:54:49.431Z,91.45
2023-01-22T11:58:15.041Z,91.55
2023-01-22T12:01:36.697Z,91.49
2023-01-22T12:04:45.264Z,91.55
2023-01-22T12:08:15.075Z,91.64
2023-01-22T12:11:24.091Z,91.64
2023-01-22T12:14:26.820Z,91.75
2023-01-22T12:17:38.670Z,91.87
2023-01-22T12:20:58.036Z,91.76
2023-01-22T12:24:39.230Z,91.70
2023-01-22T12:27:56.438Z,91.76
2023-01-22T12:31:39.812Z,91.79
2023-01-22T12:34:54.921Z,91.73
2023-01-22T12:38:06.587Z,91.71
2023-01-22T12:41:36.749Z,91.68
2023-01-22T12:44:54.538Z,91.56
2023-01-22T12:48:21.597Z,91.87
2023-01-22T12:51:39.268Z,91.89
2023-01-22T12:54:42.239Z,91.73
2023-01-22T12:57:44.984Z,91.64
2023-01-22T13:01:04.109Z,91.71
2023-01-22T13:04:14.823Z,91.72
2023-01-22T13:07:44.957Z,91.65
2023-01-22T13:10:59.407Z,91.67
2023-01-22T13:14:26.937Z,91.58
2023-01-22T13:17:31.209Z,91.77
2023-01-22T13:20:37.869Z,91.59
2023-01-22T13:23:44.023Z,91.58
2023-01-22T13:26:54.218Z,91.52
2023-01-22T13:30:15.605Z,91.51
2023-01-22T13:33:18.402Z,91.62
2023-01-22T13:36:21.707Z,91.62
2023-01-22T13:39:27.649Z,91.51
2023-01-22T13:42:30.443Z,91.37
2023-01-22T13:45:36.184Z,91.44
2023-01-22T13:48:38.945Z,91.47
2023-01-22T13:51:42.889Z,91.48
2023-01-22T13:55:01.144Z,91.32
2023-01-22T13:58:05.430Z,91.28
2023-01-22T14:01:10.628Z,91.22
2023-01-22T14:04:30.762Z,91.38
2023-01-22T14:07:39.488Z,91.24
2023-01-22T14:10:49.801Z,91.23
2023-01-22T14:13:53.995Z,91.09
2023-01-22T14:16:56.770Z,91.30
2023-01-22T14:20:01.283Z,91.10
2023-01-22T14:23:04.025Z,90.92
2023-01-22T14:26:08.454Z,90.92
2023-01-22T14:29:11.515Z,90.75
2023-01-22T14:32:14.338Z,90.85
2023-01-22T14:35:19.655Z,90.83
2023-01-22T14:38:23.612Z,90.88
2023-01-22T14:41:26.423Z,90.93
2023-01-22T14:44:29.210Z,90.97
2023-01-22T14:47:33.058Z,90.69
2023-01-22T14:50:35.791Z,90.80
2023-01-22T14:53:42.358Z,90.84
2023-01-22T14:56:45.097Z,90.64
2023-01-22T14:59:47.908Z,90.61
2023-01-22T15:02:55.682Z,90.79
2023-01-22T15:05:58.571Z,90.66
2023-01-22T15:09:01.861Z,91.03
2023-01-22T15:12:08.169Z,90.76
2023-01-22T15:15:11.622Z,90.83
2023-01-22T15:18:14.887Z,90.88
2023-01-22T15:21:17.666Z,90.78
2023-01-22T15:24:21.770Z,91.02
2023-01-22T15:27:24.576Z,91.00
2023-01-22T15:30:27.382Z,91.01
2023-01-22T15:33:30.180Z,91.01
2023-01-22T15:36:34.873Z,91.03
2023-01-22T15:39:37.604Z,91.09
2023-01-22T15:42:41.736Z,91.24
2023-01-22T15:45:44.574Z,91.09
2023-01-22T15:48:47.831Z,91.35
2023-01-22T15:51:50.623Z,91.34
2023-01-22T15:54:54.014Z,91.22
2023-01-22T15:58:00.248Z,91.04
2023-01-22T16:01:03.028Z,91.35
2023-01-22T16:04:06.510Z,91.40
2023-01-22T16:07:09.302Z,91.44
2023-01-22T16:10:12.101Z,91.51
2023-01-22T16:13:14.887Z,91.52
2023-01-22T16:16:32.798Z,91.30
2023-01-22T16:19:35.787Z,91.29
2023-01-22T16:22:45.750Z,91.31
2023-01-22T16:25:48.528Z,91.26
2023-01-22T16:28:53.199Z,91.17
2023-01-22T16:31:56.507Z,91.18
2023-01-22T16:34:59.454Z,91.25
2023-01-22T16:38:09.366Z,91.21
2023-01-22T16:41:24.322Z,91.01
2023-01-22T16:44:33.431Z,91.08
2023-01-22T16:47:36.520Z,91.12
2023-01-22T16:50:39.446Z,91.17
2023-01-22T16:53:42.273Z,90.88
2023-01-22T16:56:50.607Z,90.97
2023-01-22T16:59:53.506Z,90.98
2023-01-22T17:02:56.505Z,90.94
2023-01-22T17:06:00.169Z,90.76
2023-01-22T17:09:03.097Z,90.95
2023-01-22T17:12:06.934Z,90.83
2023-01-22T17:15:10.673Z,90.67
2023-01-22T17:18:14.751Z,90.71
2023-01-22T17:21:19.399Z,91.21
2023-01-22T17:24:23.271Z,90.93
2023-01-22T17:27:26.362Z,90.56
2023-01-22T17:30:29.344Z,90.43
2023-01-22T17:33:35.794Z,90.45
2023-01-22T17:36:40.322Z,90.30
2023-01-22T17:39:50.604Z,90.35
2023-01-22T17:42:53.536Z,90.47
2023-01-22T17:45:59.303Z,90.44
2023-01-22T17:49:04.729Z,90.31
2023-01-22T17:52:09.480Z,90.40
2023-01-22T17:55:12.730Z,90.32
2023-01-22T17:58:18.993Z,90.22
2023-01-22T18:01:24.491Z,90.31
2023-01-22T18:04:30.445Z,90.25
2023-01-22T18:07:35.604Z,90.24
2023-01-22T18:10:38.880Z,90.22
2023-01-22T18:13:42.257Z,90.24
2023-01-22T18:16:46.005Z,90.16
2023-01-22T18:19:52.385Z,90.19
2023-01-22T18:22:55.303Z,90.24
2023-01-22T18:25:58.341Z,90.31
2023-01-22T18:29:03.802Z,90.22
2023-01-22T18:32:06.852Z,90.29
2023-01-22T18:35:10.178Z,90.21
2023-01-22T18:38:13.685Z,90.22
2023-01-22T18:41:20.023Z,90.30
2023-01-22T18:44:27.635Z,90.18
2023-01-22T18:47:34.002Z,90.49
2023-01-22T18:50:37.900Z,90.42
2023-01-22T18:53:42.099Z,90.31
2023-01-22T18:56:46.940Z,90.28
2023-01-22T18:59:49.839Z,90.44
2023-01-22T19:02:57.453Z,90.22
2023-01-22T19:06:03.509Z,90.39
2023-01-22T19:09:12.562Z,90.49
2023-01-22T19:12:18.814Z,90.37
2023-01-22T19:15:24.152Z,90.32
2023-01-22T19:18:28.906Z,90.13
2023-01-22T19:21:32.437Z,90.22
2023-01-22T19:24:36.968Z,90.36
2023-01-22T19:27:39.767Z,90.20
2023-01-22T19:30:42.526Z,90.16
2023-01-22T19:33:48.768Z,90.35
2023-01-22T19:37:02.386Z,90.44
2023-01-22T19:40:07.371Z,90.45
2023-01-22T19:43:10.266Z,90.28
2023-01-22T19:46:14.137Z,90.38
2023-01-22T19:49:17.095Z,90.38
2023-01-22T19:52:20.074Z,90.55
2023-01-22T19:55:25.216Z,90.30
2023-01-22T19:58:31.167Z,90.28
2023-01-22T20:01:36.880Z,90.30
2023-01-22T20:04:40.695Z,90.38
2023-01-22T20:07:44.694Z,90.40
2023-01-22T20:10:51.057Z,90.40
2023-01-22T20:13:53.903Z,90.23
2023-01-22T20:16:57.993Z,90.50
2023-01-22T20:20:00.777Z,90.44
2023-01-22T20:23:03.804Z,90.62
2023-01-22T20:26:08.749Z,90.66
2023-01-22T20:29:12.843Z,90.74
2023-01-22T20:32:15.725Z,90.68
2023-01-22T20:35:19.341Z,90.93
2023-01-22T20:38:22.592Z,90.76
2023-01-22T20:41:30.083Z,90.97
2023-01-22T20:44:37.294Z,90.76
2023-01-22T20:47:40.383Z,90.76
2023-01-22T20:50:43.455Z,90.80
2023-01-22T20:53:47.656Z,90.77
2023-01-22T20:56:50.540Z,90.87
2023-01-22T20:59:53.316Z,90.89
2023-01-22T21:02:56.031Z,90.82
2023-01-22T21:06:03.128Z,90.90
2023-01-22T21:09:09.544Z,90.87
2023-01-22T21:12:13.746Z,90.96
2023-01-22T21:15:16.586Z,90.79
2023-01-22T21:18:20.987Z,90.89
2023-01-22T21:21:24.279Z,90.95
2023-01-22T21:24:27.967Z,90.83
2023-01-22T21:27:30.711Z,90.94
2023-01-22T21:30:34.357Z,90.99
2023-01-22T21:33:37.420Z,91.03
2023-01-22T21:36:47.403Z,90.80
2023-01-22T21:39:52.308Z,91.00
2023-01-22T21:43:13.693Z,90.95
2023-01-22T21:46:25.427Z,91.14
2023-01-22T21:49:29.328Z,91.20
2023-01-22T21:52:32.230Z,91.24
2023-01-22T21:55:36.530Z,91.38
2023-01-22T21:58:42.342Z,91.18
2023-01-22T22:01:46.016Z,91.33
2023-01-22T22:04:48.963Z,91.25
2023-01-22T22:07:51.778Z,91.15
2023-01-22T22:10:54.679Z,91.30
2023-01-22T22:13:57.662Z,91.16
2023-01-22T22:17:00.428Z,91.26
2023-01-22T22:20:06.817Z,91.27
2023-01-22T22:23:09.644Z,90.99
2023-01-22T22:26:12.407Z,91.31
2023-01-22T22:29:15.340Z,91.11
2023-01-22T22:32:18.115Z,90.97
2023-01-22T22:35:39.326Z,90.97
2023-01-22T22:38:42.931Z,91.27
2023-01-22T22:41:45.805Z,90.87
2023-01-22T22:44:48.523Z,90.86
2023-01-22T22:47:51.244Z,91.01
2023-01-22T22:50:54.179Z,90.84
2023-01-22T22:53:59.319Z,91.09
2023-01-22T22:57:02.055Z,91.05
2023-01-22T23:00:11.898Z,91.00
2023-01-22T23:03:14.651Z,91.08
2023-01-22T23:06:29.894Z,90.78
2023-01-22T23:09:44.605Z,90.88
2023-01-22T23:12:47.304Z,90.79
2023-01-22T23:15:52.243Z,90.78
2023-01-22T23:18:55.324Z,90.47
2023-01-22T23:22:00.206Z,90.53
2023-01-22T23:25:02.906Z,90.61
2023-01-22T23:28:05.625Z,90.54
2023-01-22T23:31:12.411Z,90.68
2023-01-22T23:34:19.352Z,90.72
2023-01-22T23:37:22.004Z,90.68
2023-01-22T23:40:24.783Z,90.87
2023-01-22T23:43:28.360Z,91.14
2023-01-22T23:46:31.786Z,90.91
2023-01-22T23:49:34.522Z,90.98
2023-01-22T23:52:39.762Z,91.16
2023-01-22T23:55:45.446Z,91.20
2023-01-22T23:58:48.222Z,91.05
